sensor_id;sensor_type;location;lat;lon;timestamp;P1;durP1;ratioP1;P2;durP2;ratioP2
55082;SDS011;40978;52.850;6.506;2023-03-01T00:01:33;17.83;;;15.85;;
55082;SDS011;40978;52.850;6.506;2023-03-01T00:03:59;18.40;;;15.75;;
55082;SDS011;40978;52.850;6.506;2023-03-01T00:06:25;20.02;;;16.20;;
55082;SDS011;40978;52.850;6.506;2023-03-01T00:08:52;22.10;;;16.13;;
55082;SDS011;40978;52.850;6.506;2023-03-01T00:11:19;21.75;;;16.58;;
55082;SDS011;40978;52.850;6.506;2023-03-01T00:13:50;22.27;;;18.20;;
55082;SDS011;40978;52.850;6.506;2023-03-01T00:16:19;21.13;;;17.40;;
55082;SDS011;40978;52.850;6.506;2023-03-01T00:18:46;20.65;;;17.08;;
55082;SDS011;40978;52.850;6.506;2023-03-01T00:21:12;17.67;;;15.80;;
55082;SDS011;40978;52.850;6.506;2023-03-01T00:23:38;20.70;;;16.73;;
55082;SDS011;40978;52.850;6.506;2023-03-01T00:26:06;19.65;;;16.10;;
55082;SDS011;40978;52.850;6.506;2023-03-01T00:28:33;21.60;;;17.35;;
55082;SDS011;40978;52.850;6.506;2023-03-01T00:31:06;20.33;;;16.10;;
55082;SDS011;40978;52.850;6.506;2023-03-01T00:33:33;21.83;;;15.70;;
55082;SDS011;40978;52.850;6.506;2023-03-01T00:35:59;18.13;;;16.13;;
55082;SDS011;40978;52.850;6.506;2023-03-01T00:38:25;21.52;;;15.95;;
55082;SDS011;40978;52.850;6.506;2023-03-01T00:40:51;17.25;;;15.35;;
55082;SDS011;40978;52.850;6.506;2023-03-01T00:43:17;20.98;;;15.88;;
55082;SDS011;40978;52.850;6.506;2023-03-01T00:45:43;17.65;;;15.13;;
55082;SDS011;40978;52.850;6.506;2023-03-01T00:48:10;19.05;;;15.18;;
55082;SDS011;40978;52.850;6.506;2023-03-01T00:50:35;17.30;;;14.43;;
55082;SDS011;40978;52.850;6.506;2023-03-01T00:53:01;19.65;;;15.13;;
55082;SDS011;40978;52.850;6.506;2023-03-01T00:55:27;16.63;;;14.55;;
55082;SDS011;40978;52.850;6.506;2023-03-01T00:57:52;18.63;;;16.33;;
55082;SDS011;40978;52.850;6.506;2023-03-01T01:00:18;19.27;;;15.75;;
55082;SDS011;40978;52.850;6.506;2023-03-01T01:02:45;19.98;;;15.50;;
55082;SDS011;40978;52.850;6.506;2023-03-01T01:05:11;19.15;;;15.80;;
55082;SDS011;40978;52.850;6.506;2023-03-01T01:07:37;18.92;;;15.93;;
55082;SDS011;40978;52.850;6.506;2023-03-01T01:10:03;22.52;;;17.30;;
55082;SDS011;40978;52.850;6.506;2023-03-01T01:12:29;20.77;;;15.95;;
55082;SDS011;40978;52.850;6.506;2023-03-01T01:14:54;18.35;;;16.23;;
55082;SDS011;40978;52.850;6.506;2023-03-01T01:17:20;26.48;;;18.30;;
55082;SDS011;40978;52.850;6.506;2023-03-01T01:19:46;24.40;;;17.60;;
55082;SDS011;40978;52.850;6.506;2023-03-01T01:22:12;36.65;;;19.95;;
55082;SDS011;40978;52.850;6.506;2023-03-01T01:24:37;62.35;;;21.13;;
55082;SDS011;40978;52.850;6.506;2023-03-01T01:27:03;100.03;;;26.40;;
55082;SDS011;40978;52.850;6.506;2023-03-01T01:29:29;92.20;;;26.38;;
55082;SDS011;40978;52.850;6.506;2023-03-01T01:31:54;43.22;;;22.83;;
55082;SDS011;40978;52.850;6.506;2023-03-01T01:34:21;42.00;;;21.55;;
55082;SDS011;40978;52.850;6.506;2023-03-01T01:36:47;50.40;;;23.27;;
55082;SDS011;40978;52.850;6.506;2023-03-01T01:39:15;59.55;;;23.63;;
55082;SDS011;40978;52.850;6.506;2023-03-01T01:41:41;49.10;;;24.08;;
55082;SDS011;40978;52.850;6.506;2023-03-01T01:46:40;39.92;;;23.95;;
55082;SDS011;40978;52.850;6.506;2023-03-01T01:49:23;42.13;;;23.40;;
55082;SDS011;40978;52.850;6.506;2023-03-01T01:52:12;40.65;;;22.83;;
55082;SDS011;40978;52.850;6.506;2023-03-01T01:54:50;47.60;;;23.98;;
55082;SDS011;40978;52.850;6.506;2023-03-01T01:57:29;47.10;;;23.92;;
55082;SDS011;40978;52.850;6.506;2023-03-01T02:02:28;36.75;;;21.73;;
55082;SDS011;40978;52.850;6.506;2023-03-01T02:04:55;32.50;;;22.88;;
55082;SDS011;40978;52.850;6.506;2023-03-01T02:07:35;34.88;;;22.30;;
55082;SDS011;40978;52.850;6.506;2023-03-01T02:10:04;34.08;;;24.67;;
55082;SDS011;40978;52.850;6.506;2023-03-01T02:12:30;39.97;;;23.35;;
55082;SDS011;40978;52.850;6.506;2023-03-01T02:14:56;35.08;;;22.45;;
55082;SDS011;40978;52.850;6.506;2023-03-01T02:17:21;33.40;;;22.60;;
55082;SDS011;40978;52.850;6.506;2023-03-01T02:19:51;28.08;;;21.90;;
55082;SDS011;40978;52.850;6.506;2023-03-01T02:22:34;26.65;;;21.75;;
55082;SDS011;40978;52.850;6.506;2023-03-01T02:27:47;30.50;;;23.30;;
55082;SDS011;40978;52.850;6.506;2023-03-01T02:30:23;27.75;;;21.80;;
55082;SDS011;40978;52.850;6.506;2023-03-01T02:32:50;28.80;;;22.85;;
55082;SDS011;40978;52.850;6.506;2023-03-01T02:35:17;27.95;;;22.30;;
55082;SDS011;40978;52.850;6.506;2023-03-01T02:37:44;103.45;;;22.55;;
55082;SDS011;40978;52.850;6.506;2023-03-01T02:40:11;38.42;;;20.30;;
55082;SDS011;40978;52.850;6.506;2023-03-01T02:42:54;77.20;;;22.48;;
55082;SDS011;40978;52.850;6.506;2023-03-01T02:45:22;50.17;;;20.65;;
55082;SDS011;40978;52.850;6.506;2023-03-01T02:47:48;39.88;;;21.38;;
55082;SDS011;40978;52.850;6.506;2023-03-01T02:50:18;48.20;;;21.60;;
55082;SDS011;40978;52.850;6.506;2023-03-01T02:53:08;28.52;;;20.15;;
55082;SDS011;40978;52.850;6.506;2023-03-01T02:55:41;26.10;;;19.77;;
55082;SDS011;40978;52.850;6.506;2023-03-01T02:58:07;23.88;;;19.67;;
55082;SDS011;40978;52.850;6.506;2023-03-01T03:00:35;21.42;;;19.13;;
55082;SDS011;40978;52.850;6.506;2023-03-01T03:03:05;20.83;;;17.92;;
55082;SDS011;40978;52.850;6.506;2023-03-01T03:05:32;22.15;;;18.60;;
55082;SDS011;40978;52.850;6.506;2023-03-01T03:07:59;20.35;;;18.13;;
55082;SDS011;40978;52.850;6.506;2023-03-01T03:10:28;19.75;;;17.05;;
55082;SDS011;40978;52.850;6.506;2023-03-01T03:12:59;19.02;;;17.02;;
55082;SDS011;40978;52.850;6.506;2023-03-01T03:15:27;18.60;;;16.58;;
55082;SDS011;40978;52.850;6.506;2023-03-01T03:17:54;18.15;;;16.17;;
55082;SDS011;40978;52.850;6.506;2023-03-01T03:20:22;17.40;;;15.52;;
55082;SDS011;40978;52.850;6.506;2023-03-01T03:22:51;17.77;;;15.88;;
55082;SDS011;40978;52.850;6.506;2023-03-01T03:25:19;17.02;;;15.30;;
55082;SDS011;40978;52.850;6.506;2023-03-01T03:27:47;18.17;;;16.30;;
55082;SDS011;40978;52.850;6.506;2023-03-01T03:30:17;17.70;;;15.88;;
55082;SDS011;40978;52.850;6.506;2023-03-01T03:32:45;18.73;;;16.83;;
55082;SDS011;40978;52.850;6.506;2023-03-01T03:35:19;19.80;;;16.90;;
55082;SDS011;40978;52.850;6.506;2023-03-01T03:37:49;18.67;;;16.67;;
55082;SDS011;40978;52.850;6.506;2023-03-01T03:40:50;20.63;;;17.58;;
55082;SDS011;40978;52.850;6.506;2023-03-01T03:43:26;18.92;;;16.92;;
55082;SDS011;40978;52.850;6.506;2023-03-01T03:45:51;18.45;;;16.55;;
55082;SDS011;40978;52.850;6.506;2023-03-01T03:48:18;19.90;;;17.80;;
55082;SDS011;40978;52.850;6.506;2023-03-01T03:50:47;18.08;;;16.13;;
55082;SDS011;40978;52.850;6.506;2023-03-01T03:53:15;18.67;;;16.38;;
55082;SDS011;40978;52.850;6.506;2023-03-01T03:55:41;20.50;;;18.25;;
55082;SDS011;40978;52.850;6.506;2023-03-01T03:58:07;18.40;;;16.15;;
55082;SDS011;40978;52.850;6.506;2023-03-01T04:00:35;17.73;;;15.57;;
55082;SDS011;40978;52.850;6.506;2023-03-01T04:03:03;18.27;;;16.30;;
55082;SDS011;40978;52.850;6.506;2023-03-01T04:05:29;19.00;;;17.00;;
55082;SDS011;40978;52.850;6.506;2023-03-01T04:07:55;18.17;;;16.15;;
55082;SDS011;40978;52.850;6.506;2023-03-01T04:10:28;17.67;;;15.77;;
55082;SDS011;40978;52.850;6.506;2023-03-01T04:12:56;17.95;;;16.02;;
55082;SDS011;40978;52.850;6.506;2023-03-01T04:15:22;17.83;;;15.93;;
55082;SDS011;40978;52.850;6.506;2023-03-01T04:17:49;17.85;;;15.93;;
55082;SDS011;40978;52.850;6.506;2023-03-01T04:20:19;17.13;;;15.27;;
55082;SDS011;40978;52.850;6.506;2023-03-01T04:22:50;18.58;;;16.58;;
55082;SDS011;40978;52.850;6.506;2023-03-01T04:25:17;17.55;;;15.43;;
55082;SDS011;40978;52.850;6.506;2023-03-01T04:27:43;18.20;;;15.77;;
55082;SDS011;40978;52.850;6.506;2023-03-01T04:30:09;18.38;;;16.05;;
55082;SDS011;40978;52.850;6.506;2023-03-01T04:32:35;17.63;;;15.82;;
55082;SDS011;40978;52.850;6.506;2023-03-01T04:35:02;18.83;;;16.92;;
55082;SDS011;40978;52.850;6.506;2023-03-01T04:37:35;18.67;;;16.67;;
55082;SDS011;40978;52.850;6.506;2023-03-01T04:42:41;18.40;;;16.13;;
55082;SDS011;40978;52.850;6.506;2023-03-01T04:45:07;18.65;;;16.27;;
55082;SDS011;40978;52.850;6.506;2023-03-01T04:47:38;19.52;;;16.10;;
55082;SDS011;40978;52.850;6.506;2023-03-01T04:50:06;18.08;;;16.25;;
55082;SDS011;40978;52.850;6.506;2023-03-01T04:52:32;17.52;;;15.57;;
55082;SDS011;40978;52.850;6.506;2023-03-01T04:54:58;18.15;;;15.98;;
55082;SDS011;40978;52.850;6.506;2023-03-01T04:57:24;17.95;;;16.05;;
55082;SDS011;40978;52.850;6.506;2023-03-01T04:59:50;17.33;;;15.52;;
55082;SDS011;40978;52.850;6.506;2023-03-01T05:02:15;18.55;;;15.48;;
55082;SDS011;40978;52.850;6.506;2023-03-01T05:04:41;18.23;;;16.08;;
55082;SDS011;40978;52.850;6.506;2023-03-01T05:07:07;17.27;;;15.18;;
55082;SDS011;40978;52.850;6.506;2023-03-01T05:09:33;17.55;;;15.05;;
55082;SDS011;40978;52.850;6.506;2023-03-01T05:11:59;16.85;;;15.02;;
55082;SDS011;40978;52.850;6.506;2023-03-01T05:14:24;18.27;;;16.38;;
55082;SDS011;40978;52.850;6.506;2023-03-01T05:16:50;18.65;;;15.68;;
55082;SDS011;40978;52.850;6.506;2023-03-01T05:19:16;18.80;;;16.83;;
55082;SDS011;40978;52.850;6.506;2023-03-01T05:21:47;18.50;;;16.40;;
55082;SDS011;40978;52.850;6.506;2023-03-01T05:24:29;18.20;;;16.15;;
55082;SDS011;40978;52.850;6.506;2023-03-01T05:26:56;18.35;;;15.55;;
55082;SDS011;40978;52.850;6.506;2023-03-01T05:29:23;17.95;;;15.38;;
55082;SDS011;40978;52.850;6.506;2023-03-01T05:31:51;17.50;;;15.70;;
55082;SDS011;40978;52.850;6.506;2023-03-01T05:34:24;20.85;;;16.58;;
55082;SDS011;40978;52.850;6.506;2023-03-01T05:36:52;17.38;;;14.55;;
55082;SDS011;40978;52.850;6.506;2023-03-01T05:39:21;18.13;;;16.00;;
55082;SDS011;40978;52.850;6.506;2023-03-01T05:41:51;18.75;;;16.50;;
55082;SDS011;40978;52.850;6.506;2023-03-01T05:44:18;17.77;;;15.73;;
55082;SDS011;40978;52.850;6.506;2023-03-01T05:46:44;16.73;;;15.02;;
55082;SDS011;40978;52.850;6.506;2023-03-01T05:49:10;17.80;;;15.50;;
55082;SDS011;40978;52.850;6.506;2023-03-01T05:51:38;17.35;;;15.27;;
55082;SDS011;40978;52.850;6.506;2023-03-01T05:54:07;16.80;;;15.00;;
55082;SDS011;40978;52.850;6.506;2023-03-01T05:56:34;15.88;;;14.18;;
55082;SDS011;40978;52.850;6.506;2023-03-01T05:59:01;17.58;;;15.60;;
55082;SDS011;40978;52.850;6.506;2023-03-01T06:01:28;16.98;;;15.10;;
55082;SDS011;40978;52.850;6.506;2023-03-01T06:03:54;17.63;;;15.00;;
55082;SDS011;40978;52.850;6.506;2023-03-01T06:06:21;16.65;;;14.82;;
55082;SDS011;40978;52.850;6.506;2023-03-01T06:08:47;17.98;;;15.85;;
55082;SDS011;40978;52.850;6.506;2023-03-01T06:11:13;17.98;;;15.38;;
55082;SDS011;40978;52.850;6.506;2023-03-01T06:13:40;16.77;;;14.80;;
55082;SDS011;40978;52.850;6.506;2023-03-01T06:16:09;16.83;;;14.95;;
55082;SDS011;40978;52.850;6.506;2023-03-01T06:18:35;17.85;;;15.38;;
55082;SDS011;40978;52.850;6.506;2023-03-01T06:21:02;17.10;;;14.93;;
55082;SDS011;40978;52.850;6.506;2023-03-01T06:23:28;16.30;;;13.95;;
55082;SDS011;40978;52.850;6.506;2023-03-01T06:25:54;18.15;;;14.57;;
55082;SDS011;40978;52.850;6.506;2023-03-01T06:28:20;17.88;;;15.98;;
55082;SDS011;40978;52.850;6.506;2023-03-01T06:30:46;17.38;;;15.35;;
55082;SDS011;40978;52.850;6.506;2023-03-01T06:33:12;16.50;;;14.68;;
55082;SDS011;40978;52.850;6.506;2023-03-01T06:35:38;17.63;;;15.10;;
55082;SDS011;40978;52.850;6.506;2023-03-01T06:38:04;18.05;;;15.38;;
55082;SDS011;40978;52.850;6.506;2023-03-01T06:40:31;18.08;;;15.52;;
55082;SDS011;40978;52.850;6.506;2023-03-01T06:42:57;21.75;;;17.58;;
55082;SDS011;40978;52.850;6.506;2023-03-01T06:45:24;19.30;;;16.25;;
55082;SDS011;40978;52.850;6.506;2023-03-01T06:47:50;16.85;;;13.98;;
55082;SDS011;40978;52.850;6.506;2023-03-01T06:50:16;18.73;;;16.73;;
55082;SDS011;40978;52.850;6.506;2023-03-01T06:52:42;17.60;;;15.43;;
55082;SDS011;40978;52.850;6.506;2023-03-01T06:55:10;18.52;;;15.98;;
55082;SDS011;40978;52.850;6.506;2023-03-01T06:57:37;21.45;;;17.90;;
55082;SDS011;40978;52.850;6.506;2023-03-01T07:00:03;23.00;;;18.13;;
55082;SDS011;40978;52.850;6.506;2023-03-01T07:02:30;22.42;;;18.30;;
55082;SDS011;40978;52.850;6.506;2023-03-01T07:04:56;28.13;;;18.95;;
55082;SDS011;40978;52.850;6.506;2023-03-01T07:07:22;24.88;;;19.33;;
55082;SDS011;40978;52.850;6.506;2023-03-01T07:09:48;25.27;;;20.17;;
55082;SDS011;40978;52.850;6.506;2023-03-01T07:12:15;26.98;;;20.65;;
55082;SDS011;40978;52.850;6.506;2023-03-01T07:14:41;25.00;;;19.88;;
55082;SDS011;40978;52.850;6.506;2023-03-01T07:17:08;27.13;;;20.48;;
55082;SDS011;40978;52.850;6.506;2023-03-01T07:19:34;29.35;;;21.55;;
55082;SDS011;40978;52.850;6.506;2023-03-01T07:22:00;31.05;;;22.23;;
55082;SDS011;40978;52.850;6.506;2023-03-01T07:24:25;31.38;;;22.33;;
55082;SDS011;40978;52.850;6.506;2023-03-01T07:26:51;32.67;;;23.95;;
55082;SDS011;40978;52.850;6.506;2023-03-01T07:29:18;29.85;;;23.65;;
55082;SDS011;40978;52.850;6.506;2023-03-01T07:31:44;37.85;;;25.10;;
55082;SDS011;40978;52.850;6.506;2023-03-01T07:34:10;35.25;;;25.67;;
55082;SDS011;40978;52.850;6.506;2023-03-01T07:36:37;34.67;;;26.42;;
55082;SDS011;40978;52.850;6.506;2023-03-01T07:39:02;33.78;;;26.15;;
55082;SDS011;40978;52.850;6.506;2023-03-01T07:41:28;30.52;;;24.70;;
55082;SDS011;40978;52.850;6.506;2023-03-01T07:43:54;35.25;;;25.98;;
55082;SDS011;40978;52.850;6.506;2023-03-01T07:46:20;28.50;;;24.42;;
55082;SDS011;40978;52.850;6.506;2023-03-01T07:48:47;28.10;;;23.73;;
55082;SDS011;40978;52.850;6.506;2023-03-01T07:51:13;26.45;;;21.63;;
55082;SDS011;40978;52.850;6.506;2023-03-01T07:53:39;27.05;;;23.58;;
55082;SDS011;40978;52.850;6.506;2023-03-01T07:56:08;27.65;;;21.42;;
55082;SDS011;40978;52.850;6.506;2023-03-01T07:58:40;22.98;;;20.48;;
55082;SDS011;40978;52.850;6.506;2023-03-01T08:01:08;21.60;;;19.40;;
55082;SDS011;40978;52.850;6.506;2023-03-01T08:03:36;21.17;;;18.98;;
55082;SDS011;40978;52.850;6.506;2023-03-01T08:06:03;21.73;;;19.52;;
55082;SDS011;40978;52.850;6.506;2023-03-01T08:08:30;21.80;;;19.45;;
55082;SDS011;40978;52.850;6.506;2023-03-01T08:10:57;20.88;;;18.67;;
55082;SDS011;40978;52.850;6.506;2023-03-01T08:13:23;21.10;;;18.92;;
55082;SDS011;40978;52.850;6.506;2023-03-01T08:15:49;21.02;;;18.90;;
55082;SDS011;40978;52.850;6.506;2023-03-01T08:18:19;21.55;;;19.42;;
55082;SDS011;40978;52.850;6.506;2023-03-01T08:20:46;21.90;;;19.65;;
55082;SDS011;40978;52.850;6.506;2023-03-01T08:23:12;20.85;;;18.75;;
55082;SDS011;40978;52.850;6.506;2023-03-01T08:25:38;21.77;;;19.50;;
55082;SDS011;40978;52.850;6.506;2023-03-01T08:28:04;21.23;;;19.02;;
55082;SDS011;40978;52.850;6.506;2023-03-01T08:30:30;21.98;;;19.77;;
55082;SDS011;40978;52.850;6.506;2023-03-01T08:32:56;22.95;;;20.45;;
55082;SDS011;40978;52.850;6.506;2023-03-01T08:35:21;22.80;;;20.50;;
55082;SDS011;40978;52.850;6.506;2023-03-01T08:37:47;22.77;;;20.15;;
55082;SDS011;40978;52.850;6.506;2023-03-01T08:40:13;22.25;;;19.90;;
55082;SDS011;40978;52.850;6.506;2023-03-01T08:42:40;25.08;;;20.27;;
55082;SDS011;40978;52.850;6.506;2023-03-01T08:45:10;22.83;;;20.48;;
55082;SDS011;40978;52.850;6.506;2023-03-01T08:47:36;22.00;;;19.80;;
55082;SDS011;40978;52.850;6.506;2023-03-01T08:50:02;23.00;;;20.63;;
55082;SDS011;40978;52.850;6.506;2023-03-01T08:52:29;22.52;;;20.15;;
55082;SDS011;40978;52.850;6.506;2023-03-01T08:54:55;22.67;;;19.95;;
55082;SDS011;40978;52.850;6.506;2023-03-01T08:57:21;21.98;;;19.48;;
55082;SDS011;40978;52.850;6.506;2023-03-01T08:59:47;21.55;;;19.38;;
55082;SDS011;40978;52.850;6.506;2023-03-01T09:02:17;22.40;;;20.10;;
55082;SDS011;40978;52.850;6.506;2023-03-01T09:04:44;22.10;;;19.90;;
55082;SDS011;40978;52.850;6.506;2023-03-01T09:07:10;21.58;;;19.27;;
55082;SDS011;40978;52.850;6.506;2023-03-01T09:09:36;21.67;;;19.50;;
55082;SDS011;40978;52.850;6.506;2023-03-01T09:12:02;21.05;;;19.05;;
55082;SDS011;40978;52.850;6.506;2023-03-01T09:14:29;22.25;;;20.00;;
55082;SDS011;40978;52.850;6.506;2023-03-01T09:16:57;21.55;;;19.38;;
55082;SDS011;40978;52.850;6.506;2023-03-01T09:19:23;20.75;;;18.67;;
55082;SDS011;40978;52.850;6.506;2023-03-01T09:21:49;21.08;;;19.02;;
55082;SDS011;40978;52.850;6.506;2023-03-01T09:24:18;21.17;;;19.00;;
55082;SDS011;40978;52.850;6.506;2023-03-01T09:26:48;20.05;;;17.95;;
55082;SDS011;40978;52.850;6.506;2023-03-01T09:29:15;20.65;;;18.50;;
55082;SDS011;40978;52.850;6.506;2023-03-01T09:31:41;19.23;;;17.27;;
55082;SDS011;40978;52.850;6.506;2023-03-01T09:34:08;18.08;;;16.30;;
55082;SDS011;40978;52.850;6.506;2023-03-01T09:36:34;19.05;;;17.15;;
55082;SDS011;40978;52.850;6.506;2023-03-01T09:39:00;17.08;;;15.27;;
55082;SDS011;40978;52.850;6.506;2023-03-01T09:43:57;17.70;;;15.27;;
55082;SDS011;40978;52.850;6.506;2023-03-01T09:46:29;16.30;;;14.60;;
55082;SDS011;40978;52.850;6.506;2023-03-01T09:49:03;16.33;;;14.77;;
55082;SDS011;40978;52.850;6.506;2023-03-01T09:54:02;13.68;;;12.38;;
55082;SDS011;40978;52.850;6.506;2023-03-01T10:02:07;15.73;;;11.90;;
55082;SDS011;40978;52.850;6.506;2023-03-01T10:04:46;10.65;;;9.50;;
55082;SDS011;40978;52.850;6.506;2023-03-01T10:10:29;10.23;;;9.13;;
55082;SDS011;40978;52.850;6.506;2023-03-01T10:13:00;9.98;;;8.77;;
55082;SDS011;40978;52.850;6.506;2023-03-01T10:15:39;9.30;;;7.28;;
55082;SDS011;40978;52.850;6.506;2023-03-01T10:18:27;8.35;;;6.75;;
55082;SDS011;40978;52.850;6.506;2023-03-01T10:21:02;7.43;;;6.07;;
55082;SDS011;40978;52.850;6.506;2023-03-01T10:23:34;6.50;;;5.82;;
55082;SDS011;40978;52.850;6.506;2023-03-01T10:29:09;7.43;;;6.57;;
55082;SDS011;40978;52.850;6.506;2023-03-01T10:31:43;7.72;;;5.95;;
55082;SDS011;40978;52.850;6.506;2023-03-01T10:36:44;10.18;;;9.07;;
55082;SDS011;40978;52.850;6.506;2023-03-01T10:39:17;10.93;;;9.38;;
55082;SDS011;40978;52.850;6.506;2023-03-01T10:41:55;10.82;;;9.73;;
55082;SDS011;40978;52.850;6.506;2023-03-01T10:44:38;10.60;;;9.13;;
55082;SDS011;40978;52.850;6.506;2023-03-01T10:47:05;10.18;;;9.18;;
55082;SDS011;40978;52.850;6.506;2023-03-01T10:49:58;9.10;;;8.18;;
55082;SDS011;40978;52.850;6.506;2023-03-01T10:52:33;10.13;;;8.73;;
55082;SDS011;40978;52.850;6.506;2023-03-01T10:55:17;10.25;;;8.90;;
55082;SDS011;40978;52.850;6.506;2023-03-01T10:57:51;11.20;;;8.85;;
55082;SDS011;40978;52.850;6.506;2023-03-01T11:00:34;9.52;;;8.52;;
55082;SDS011;40978;52.850;6.506;2023-03-01T11:03:12;9.88;;;8.98;;
55082;SDS011;40978;52.850;6.506;2023-03-01T11:05:58;7.18;;;6.40;;
55082;SDS011;40978;52.850;6.506;2023-03-01T11:11:03;8.05;;;5.50;;
55082;SDS011;40978;52.850;6.506;2023-03-01T11:13:53;7.13;;;5.93;;
55082;SDS011;40978;52.850;6.506;2023-03-01T11:19:00;6.60;;;5.90;;
55082;SDS011;40978;52.850;6.506;2023-03-01T11:24:12;7.68;;;6.13;;
55082;SDS011;40978;52.850;6.506;2023-03-01T11:26:41;7.20;;;5.85;;
55082;SDS011;40978;52.850;6.506;2023-03-01T11:32:08;6.82;;;5.18;;
55082;SDS011;40978;52.850;6.506;2023-03-01T11:37:21;6.22;;;5.60;;
55082;SDS011;40978;52.850;6.506;2023-03-01T11:40:13;5.78;;;5.22;;
55082;SDS011;40978;52.850;6.506;2023-03-01T11:42:46;8.18;;;4.95;;
55082;SDS011;40978;52.850;6.506;2023-03-01T11:45:21;5.63;;;5.13;;
55082;SDS011;40978;52.850;6.506;2023-03-01T11:50:26;7.32;;;5.57;;
55082;SDS011;40978;52.850;6.506;2023-03-01T11:53:01;6.97;;;5.10;;
55082;SDS011;40978;52.850;6.506;2023-03-01T12:01:36;6.32;;;4.68;;
55082;SDS011;40978;52.850;6.506;2023-03-01T12:06:24;6.82;;;5.95;;
55082;SDS011;40978;52.850;6.506;2023-03-01T12:09:05;6.80;;;5.30;;
55082;SDS011;40978;52.850;6.506;2023-03-01T12:12:04;6.18;;;5.57;;
55082;SDS011;40978;52.850;6.506;2023-03-01T12:23:35;8.15;;;7.35;;
55082;SDS011;40978;52.850;6.506;2023-03-01T12:29:27;9.50;;;7.80;;
55082;SDS011;40978;52.850;6.506;2023-03-01T12:34:44;9.55;;;8.55;;
55082;SDS011;40978;52.850;6.506;2023-03-01T12:50:55;10.98;;;8.77;;
55082;SDS011;40978;52.850;6.506;2023-03-01T12:53:30;10.52;;;8.50;;
55082;SDS011;40978;52.850;6.506;2023-03-01T12:56:11;9.38;;;8.38;;
55082;SDS011;40978;52.850;6.506;2023-03-01T12:58:51;10.40;;;8.40;;
55082;SDS011;40978;52.850;6.506;2023-03-01T13:17:47;12.32;;;11.02;;
55082;SDS011;40978;52.850;6.506;2023-03-01T13:20:20;16.58;;;12.35;;
55082;SDS011;40978;52.850;6.506;2023-03-01T13:23:02;13.85;;;11.50;;
55082;SDS011;40978;52.850;6.506;2023-03-01T13:25:34;12.50;;;11.10;;
55082;SDS011;40978;52.850;6.506;2023-03-01T13:33:44;11.98;;;9.35;;
55082;SDS011;40978;52.850;6.506;2023-03-01T13:36:11;13.18;;;10.07;;
55082;SDS011;40978;52.850;6.506;2023-03-01T13:38:58;12.85;;;10.07;;
55082;SDS011;40978;52.850;6.506;2023-03-01T13:44:13;14.65;;;11.27;;
55082;SDS011;40978;52.850;6.506;2023-03-01T13:46:51;12.02;;;10.75;;
55082;SDS011;40978;52.850;6.506;2023-03-01T13:49:27;8.68;;;7.57;;
55082;SDS011;40978;52.850;6.506;2023-03-01T13:51:58;9.50;;;7.75;;
55082;SDS011;40978;52.850;6.506;2023-03-01T13:54:33;9.50;;;7.93;;
55082;SDS011;40978;52.850;6.506;2023-03-01T13:57:00;9.75;;;8.35;;
55082;SDS011;40978;52.850;6.506;2023-03-01T13:59:26;10.23;;;8.65;;
55082;SDS011;40978;52.850;6.506;2023-03-01T14:01:56;10.98;;;8.05;;
55082;SDS011;40978;52.850;6.506;2023-03-01T14:04:27;10.15;;;8.15;;
55082;SDS011;40978;52.850;6.506;2023-03-01T14:07:12;12.90;;;8.75;;
55082;SDS011;40978;52.850;6.506;2023-03-01T14:09:47;13.45;;;9.90;;
55082;SDS011;40978;52.850;6.506;2023-03-01T14:12:39;12.77;;;9.68;;
55082;SDS011;40978;52.850;6.506;2023-03-01T14:17:44;11.20;;;8.98;;
55082;SDS011;40978;52.850;6.506;2023-03-01T14:20:24;10.77;;;8.73;;
55082;SDS011;40978;52.850;6.506;2023-03-01T14:22:53;10.20;;;8.75;;
55082;SDS011;40978;52.850;6.506;2023-03-01T14:25:23;15.10;;;9.90;;
55082;SDS011;40978;52.850;6.506;2023-03-01T14:30:30;12.88;;;9.77;;
55082;SDS011;40978;52.850;6.506;2023-03-01T14:33:00;12.38;;;9.48;;
55082;SDS011;40978;52.850;6.506;2023-03-01T14:35:30;13.25;;;10.40;;
55082;SDS011;40978;52.850;6.506;2023-03-01T14:37:58;11.85;;;9.13;;
55082;SDS011;40978;52.850;6.506;2023-03-01T14:40:28;13.05;;;9.38;;
55082;SDS011;40978;52.850;6.506;2023-03-01T14:42:57;12.60;;;10.43;;
55082;SDS011;40978;52.850;6.506;2023-03-01T14:45:26;13.00;;;10.30;;
55082;SDS011;40978;52.850;6.506;2023-03-01T14:47:54;14.35;;;10.52;;
55082;SDS011;40978;52.850;6.506;2023-03-01T14:50:24;12.40;;;9.68;;
55082;SDS011;40978;52.850;6.506;2023-03-01T14:52:55;11.77;;;10.45;;
55082;SDS011;40978;52.850;6.506;2023-03-01T14:55:41;12.80;;;9.85;;
55082;SDS011;40978;52.850;6.506;2023-03-01T14:58:12;13.15;;;11.13;;
55082;SDS011;40978;52.850;6.506;2023-03-01T15:00:40;13.10;;;10.05;;
55082;SDS011;40978;52.850;6.506;2023-03-01T15:05:43;11.80;;;9.60;;
55082;SDS011;40978;52.850;6.506;2023-03-01T15:08:15;12.27;;;9.43;;
55082;SDS011;40978;52.850;6.506;2023-03-01T15:10:55;13.10;;;9.27;;
55082;SDS011;40978;52.850;6.506;2023-03-01T15:13:40;12.07;;;9.52;;
55082;SDS011;40978;52.850;6.506;2023-03-01T15:16:13;13.20;;;9.60;;
55082;SDS011;40978;52.850;6.506;2023-03-01T15:18:46;11.80;;;9.85;;
55082;SDS011;40978;52.850;6.506;2023-03-01T15:21:32;14.25;;;10.30;;
55082;SDS011;40978;52.850;6.506;2023-03-01T15:24:07;14.60;;;9.77;;
55082;SDS011;40978;52.850;6.506;2023-03-01T15:26:44;11.70;;;9.50;;
55082;SDS011;40978;52.850;6.506;2023-03-01T15:29:20;12.07;;;10.55;;
55082;SDS011;40978;52.850;6.506;2023-03-01T15:31:59;13.38;;;10.80;;
55082;SDS011;40978;52.850;6.506;2023-03-01T15:34:30;13.57;;;10.70;;
55082;SDS011;40978;52.850;6.506;2023-03-01T15:36:58;13.07;;;11.18;;
55082;SDS011;40978;52.850;6.506;2023-03-01T15:39:27;14.63;;;11.18;;
55082;SDS011;40978;52.850;6.506;2023-03-01T15:42:02;13.02;;;11.05;;
55082;SDS011;40978;52.850;6.506;2023-03-01T15:44:34;14.95;;;11.23;;
55082;SDS011;40978;52.850;6.506;2023-03-01T15:47:01;12.27;;;10.45;;
55082;SDS011;40978;52.850;6.506;2023-03-01T15:49:35;13.65;;;9.85;;
55082;SDS011;40978;52.850;6.506;2023-03-01T15:52:04;12.07;;;9.93;;
55082;SDS011;40978;52.850;6.506;2023-03-01T15:54:36;10.93;;;9.50;;
55082;SDS011;40978;52.850;6.506;2023-03-01T15:57:07;10.48;;;9.07;;
55082;SDS011;40978;52.850;6.506;2023-03-01T15:59:38;11.40;;;9.55;;
55082;SDS011;40978;52.850;6.506;2023-03-01T16:02:08;10.90;;;9.43;;
55082;SDS011;40978;52.850;6.506;2023-03-01T16:04:37;10.97;;;9.67;;
55082;SDS011;40978;52.850;6.506;2023-03-01T16:07:04;12.23;;;10.40;;
55082;SDS011;40978;52.850;6.506;2023-03-01T16:09:30;13.13;;;10.95;;
55082;SDS011;40978;52.850;6.506;2023-03-01T16:11:55;12.40;;;10.63;;
55082;SDS011;40978;52.850;6.506;2023-03-01T16:14:21;12.82;;;10.85;;
55082;SDS011;40978;52.850;6.506;2023-03-01T16:16:47;12.77;;;10.68;;
55082;SDS011;40978;52.850;6.506;2023-03-01T16:19:14;13.15;;;11.10;;
55082;SDS011;40978;52.850;6.506;2023-03-01T16:21:40;17.25;;;11.90;;
55082;SDS011;40978;52.850;6.506;2023-03-01T16:24:07;15.48;;;12.55;;
55082;SDS011;40978;52.850;6.506;2023-03-01T16:26:34;13.73;;;11.13;;
55082;SDS011;40978;52.850;6.506;2023-03-01T16:28:59;14.38;;;12.27;;
55082;SDS011;40978;52.850;6.506;2023-03-01T16:31:27;16.38;;;12.48;;
55082;SDS011;40978;52.850;6.506;2023-03-01T16:33:57;14.73;;;12.23;;
55082;SDS011;40978;52.850;6.506;2023-03-01T16:36:24;15.65;;;11.55;;